createdAt,value
2024-04-10T00:02:05.457Z,1
2024-04-10T00:14:05.242Z,1
2024-04-10T00:26:05.452Z,1
2024-04-10T00:38:05.231Z,1
2024-04-10T00:50:04.938Z,1
2024-04-10T01:02:05.083Z,1
2024-04-10T01:14:05.065Z,1
2024-04-10T01:26:05.150Z,1
2024-04-10T01:38:05.180Z,1
2024-04-10T01:50:05.046Z,1
2024-04-10T02:02:05.137Z,1
2024-04-10T02:14:04.995Z,1
2024-04-10T02:26:05.802Z,1
2024-04-10T02:38:05.083Z,1
2024-04-10T02:50:05.317Z,1
2024-04-10T03:02:05.010Z,1
2024-04-10T03:14:05.021Z,1
2024-04-10T03:26:05.270Z,1
2024-04-10T03:38:05.181Z,1
2024-04-10T03:50:05.037Z,1
2024-04-10T04:02:05.311Z,1
2024-04-10T04:14:05.376Z,1
2024-04-10T04:26:05.123Z,1
2024-04-10T04:38:05.104Z,1
2024-04-10T04:50:05.293Z,2
2024-04-10T05:02:05.741Z,7
2024-04-10T05:14:05.415Z,20
2024-04-10T05:26:05.146Z,55
2024-04-10T05:38:05.726Z,61
2024-04-10T05:50:05.348Z,71
2024-04-10T06:02:05.420Z,79
2024-04-10T06:14:05.800Z,84
2024-04-10T06:26:05.590Z,86
2024-04-10T06:38:05.292Z,88
2024-04-10T06:50:05.496Z,89
2024-04-10T07:02:05.222Z,89
2024-04-10T07:14:05.392Z,88
2024-04-10T07:26:05.376Z,88
2024-04-10T07:38:05.270Z,88
2024-04-10T07:50:05.679Z,91
2024-04-10T08:02:05.633Z,90
2024-04-10T08:14:05.422Z,90
2024-04-10T08:26:05.319Z,90
2024-04-10T08:38:05.521Z,91
2024-04-10T08:50:05.656Z,92
2024-04-10T09:02:05.657Z,92
2024-04-10T09:14:05.341Z,92
2024-04-10T09:26:05.502Z,94
2024-04-10T09:38:05.504Z,95
2024-04-10T09:50:05.617Z,95
2024-04-10T10:02:05.797Z,95
2024-04-10T10:14:05.945Z,95
2024-04-10T10:26:05.735Z,95
2024-04-10T10:38:07.278Z,95
2024-04-10T10:50:05.555Z,96
2024-04-10T11:02:05.770Z,96
2024-04-10T11:14:05.444Z,96
2024-04-10T11:26:05.719Z,95
2024-04-10T11:38:05.593Z,93
2024-04-10T11:50:05.592Z,92
2024-04-10T12:02:05.560Z,94
2024-04-10T12:14:07.303Z,94
2024-04-10T12:26:07.034Z,93
2024-04-10T12:38:07.313Z,93
2024-04-10T12:50:07.513Z,94
2024-04-10T13:02:05.723Z,96
2024-04-10T13:14:05.899Z,96
2024-04-10T13:26:07.145Z,96
2024-04-10T13:38:05.816Z,95
2024-04-10T13:50:07.652Z,96
2024-04-10T14:02:06.141Z,95
2024-04-10T14:14:05.650Z,96
2024-04-10T14:26:05.818Z,95
2024-04-10T14:38:06.228Z,96
2024-04-10T14:50:05.766Z,94
2024-04-10T15:02:05.725Z,90
2024-04-10T15:14:06.143Z,90
2024-04-10T15:26:05.844Z,91
2024-04-10T15:38:05.766Z,92
2024-04-10T15:50:05.771Z,91
2024-04-10T16:02:05.876Z,93
2024-04-10T16:14:05.861Z,93
2024-04-10T16:26:05.821Z,94
2024-04-10T16:38:05.807Z,95
2024-04-10T16:50:05.936Z,95
2024-04-10T17:02:05.873Z,95
2024-04-10T17:14:05.823Z,93
2024-04-10T17:26:06.058Z,93
2024-04-10T17:38:05.950Z,93
2024-04-10T17:50:06.039Z,91
2024-04-10T18:02:05.889Z,90
2024-04-10T18:14:06.231Z,88
2024-04-10T18:26:06.297Z,84
2024-04-10T18:38:05.933Z,67
2024-04-10T18:50:05.901Z,61
2024-04-10T19:02:06.105Z,44
2024-04-10T19:14:06.011Z,23
2024-04-10T19:26:05.983Z,8
2024-04-10T19:38:06.598Z,2
2024-04-10T19:50:06.320Z,1
2024-04-10T20:02:06.459Z,1
2024-04-10T20:14:06.070Z,1
2024-04-10T20:26:06.140Z,1
2024-04-10T20:38:06.130Z,1
2024-04-10T20:50:06.085Z,1
2024-04-10T21:02:06.270Z,1
2024-04-10T21:14:06.214Z,1
2024-04-10T21:26:06.251Z,1
2024-04-10T21:38:06.473Z,23
2024-04-10T22:02:08.942Z,0
2024-04-10T22:14:06.105Z,0
2024-04-10T22:26:06.397Z,0
2024-04-10T22:38:06.485Z,0
2024-04-10T22:50:06.244Z,0
2024-04-10T23:02:06.209Z,0
2024-04-10T23:14:06.410Z,0
2024-04-10T23:26:06.273Z,0
2024-04-10T23:38:06.236Z,0
2024-04-10T23:50:06.417Z,0
